Time;durP1;ratioP1;P1;durP2;ratioP2;P2;SDS_P1;SDS_P2;PMS_P1;PMS_P2;Temp;Humidity;BMP_temperature;BMP_pressure;BME280_temperature;BME280_humidity;BME280_pressure;Samples;Min_cycle;Max_cycle;Signal;HPM_P1;HPM_P2
2023/10/27 00:01:50;;;;;;;0.38;0.38;;;;;;;;;;6325266;22;20098;-87
2023/10/27 00:04:19;;;;;;;0.40;0.40;;;;;;;;;;6320995;22;20023;-85
2023/10/27 00:06:49;;;;;;;0.30;0.30;;;;;;;;;;6292512;22;20019;-87
2023/10/27 00:09:15;;;;;;;0.40;0.40;;;;;;;;;;6318915;22;20019;-87
2023/10/27 00:11:41;;;;;;;0.38;0.38;;;;;;;;;;6298360;22;20025;-88
2023/10/27 00:14:07;;;;;;;0.40;0.40;;;;;;;;;;6299764;22;20015;-88
2023/10/27 00:16:33;;;;;;;0.30;0.30;;;;;;;;;;6294989;22;20015;-87
2023/10/27 00:18:59;;;;;;;0.30;0.30;;;;;;;;;;6316826;22;20438;-87
2023/10/27 00:21:49;;;;;;;0.22;0.22;;;;;;;;;;6304916;22;20029;-87
2023/10/27 00:24:18;;;;;;;0.40;0.40;;;;;;;;;;6292792;22;20015;-86
2023/10/27 00:26:45;;;;;;;0.30;0.30;;;;;;;;;;6293004;22;20510;-86
2023/10/27 00:29:10;;;;;;;0.30;0.30;;;;;;;;;;6291490;22;20041;-87
2023/10/27 00:31:38;;;;;;;0.30;0.30;;;;;;;;;;6296743;22;20019;-85
2023/10/27 00:34:13;;;;;;;0.30;0.30;;;;;;;;;;6298180;22;20019;-88
2023/10/27 00:36:39;;;;;;;0.30;0.30;;;;;;;;;;6324617;22;20023;-86
2023/10/27 00:39:05;;;;;;;0.30;0.30;;;;;;;;;;6291649;22;20018;-86
2023/10/27 00:41:39;;;;;;;0.25;0.25;;;;;;;;;;6303894;22;20053;-87
2023/10/27 00:44:27;;;;;;;0.30;0.30;;;;;;;;;;6334368;22;20027;-85
2023/10/27 00:46:54;;;;;;;0.28;0.28;;;;;;;;;;6307271;22;20069;-87
2023/10/27 00:49:25;;;;;;;0.40;0.40;;;;;;;;;;6301495;22;20023;-85
2023/10/27 00:52:01;;;;;;;0.30;0.30;;;;;;;;;;6307788;22;20017;-86
2023/10/27 00:54:27;;;;;;;0.40;0.40;;;;;;;;;;6327942;22;20023;-86
2023/10/27 00:56:53;;;;;;;0.30;0.30;;;;;;;;;;6329996;22;20041;-88
2023/10/27 00:59:19;;;;;;;0.30;0.30;;;;;;;;;;6291183;22;20071;-87
2023/10/27 01:01:48;;;;;;;0.30;0.30;;;;;;;;;;6299856;22;19995;-86
2023/10/27 01:04:29;;;;;;;0.40;0.40;;;;;;;;;;6323674;22;20086;-87
2023/10/27 01:06:56;;;;;;;0.30;0.30;;;;;;;;;;6294811;22;20019;-87
2023/10/27 01:09:22;;;;;;;0.20;0.20;;;;;;;;;;6290592;22;20320;-85
2023/10/27 01:12:14;;;;;;;0.40;0.40;;;;;;;;;;6302933;22;19999;-85
2023/10/27 01:14:46;;;;;;;0.40;0.40;;;;;;;;;;6290092;22;20019;-87
2023/10/27 01:17:12;;;;;;;0.40;0.40;;;;;;;;;;6298825;22;20466;-87
2023/10/27 01:19:38;;;;;;;0.30;0.30;;;;;;;;;;6290658;22;20043;-88
2023/10/27 01:22:19;;;;;;;0.30;0.30;;;;;;;;;;6298581;22;20026;-85
2023/10/27 01:24:45;;;;;;;0.30;0.30;;;;;;;;;;6295005;22;20019;-86
2023/10/27 01:27:11;;;;;;;0.40;0.40;;;;;;;;;;6299414;22;20019;-87
2023/10/27 01:29:37;;;;;;;0.30;0.30;;;;;;;;;;6317497;22;20025;-88
2023/10/27 01:32:03;;;;;;;0.30;0.30;;;;;;;;;;6298579;22;20015;-86
2023/10/27 01:34:29;;;;;;;0.20;0.20;;;;;;;;;;6290486;22;20022;-86
2023/10/27 01:36:58;;;;;;;0.40;0.40;;;;;;;;;;6326516;22;19999;-86
2023/10/27 01:39:26;;;;;;;0.30;0.30;;;;;;;;;;6281663;22;20024;-87
2023/10/27 01:41:55;;;;;;;0.30;0.30;;;;;;;;;;6298997;22;20070;-86
2023/10/27 01:44:21;;;;;;;0.30;0.30;;;;;;;;;;6315686;22;20511;-86
2023/10/27 01:46:47;;;;;;;0.40;0.40;;;;;;;;;;6293848;22;20019;-88
2023/10/27 01:49:13;;;;;;;0.30;0.30;;;;;;;;;;6290327;22;20034;-86
2023/10/27 01:51:39;;;;;;;0.40;0.40;;;;;;;;;;6295791;22;19995;-88
2023/10/27 01:54:05;;;;;;;0.38;0.38;;;;;;;;;;6290012;22;20047;-88
2023/10/27 01:56:34;;;;;;;0.30;0.30;;;;;;;;;;6294867;22;20021;-87
2023/10/27 01:59:00;;;;;;;0.30;0.30;;;;;;;;;;6315809;22;20011;-87
2023/10/27 02:01:26;;;;;;;0.30;0.30;;;;;;;;;;6293101;22;20019;-86
2023/10/27 02:03:53;;;;;;;0.20;0.20;;;;;;;;;;6322091;22;20019;-85
2023/10/27 02:06:29;;;;;;;0.30;0.30;;;;;;;;;;6296270;22;20025;-85
2023/10/27 02:08:58;;;;;;;0.68;0.68;;;;;;;;;;6264167;22;20026;-86
2023/10/27 02:11:25;;;;;;;0.30;0.30;;;;;;;;;;6295637;22;20003;-86
2023/10/27 02:13:51;;;;;;;0.30;0.30;;;;;;;;;;6280623;22;20043;-86
2023/10/27 02:16:18;;;;;;;0.30;0.30;;;;;;;;;;6298324;22;20041;-86
2023/10/27 02:18:47;;;;;;;0.40;0.40;;;;;;;;;;6282479;22;20015;-84
2023/10/27 02:21:13;;;;;;;0.30;0.30;;;;;;;;;;6305338;22;20019;-85
2023/10/27 02:23:48;;;;;;;0.40;0.40;;;;;;;;;;6298610;22;20022;-85
2023/10/27 02:26:15;;;;;;;0.40;0.40;;;;;;;;;;6296016;22;20026;-86
2023/10/27 02:28:54;;;;;;;0.38;0.38;;;;;;;;;;6318343;22;20341;-87
2023/10/27 02:31:20;;;;;;;0.40;0.40;;;;;;;;;;6298912;22;20000;-87
2023/10/27 02:33:46;;;;;;;0.30;0.30;;;;;;;;;;6288451;22;20019;-87
2023/10/27 02:36:12;;;;;;;0.32;0.32;;;;;;;;;;6289926;22;20015;-87
2023/10/27 02:38:38;;;;;;;0.30;0.30;;;;;;;;;;6290637;22;20012;-85
2023/10/27 02:41:08;;;;;;;0.25;0.25;;;;;;;;;;6291812;22;20004;-87
2023/10/27 02:43:34;;;;;;;0.30;0.30;;;;;;;;;;6294364;22;20014;-86
2023/10/27 02:46:17;;;;;;;0.30;0.30;;;;;;;;;;6326009;22;20015;-86
2023/10/27 02:48:46;;;;;;;0.32;0.32;;;;;;;;;;6317859;22;20073;-87
2023/10/27 02:51:13;;;;;;;0.50;0.50;;;;;;;;;;6321592;22;20019;-86
2023/10/27 02:53:39;;;;;;;0.30;0.30;;;;;;;;;;6291289;22;20027;-86
2023/10/27 02:56:05;;;;;;;0.30;0.30;;;;;;;;;;6291146;22;20090;-87
2023/10/27 02:58:31;;;;;;;0.30;0.30;;;;;;;;;;6291094;22;20019;-87
2023/10/27 03:00:58;;;;;;;0.20;0.20;;;;;;;;;;6293965;22;20454;-86
2023/10/27 03:03:27;;;;;;;0.40;0.40;;;;;;;;;;6318692;22;20114;-86
2023/10/27 03:06:00;;;;;;;0.40;0.40;;;;;;;;;;6301499;22;19999;-86
2023/10/27 03:08:26;;;;;;;0.40;0.40;;;;;;;;;;6314995;22;20019;-88
2023/10/27 03:10:52;;;;;;;0.30;0.30;;;;;;;;;;6290313;22;20011;-87
2023/10/27 03:13:19;;;;;;;0.30;0.30;;;;;;;;;;6290443;22;20024;-87
2023/10/27 03:15:46;;;;;;;0.40;0.40;;;;;;;;;;6295544;22;20015;-85
2023/10/27 03:18:12;;;;;;;0.30;0.30;;;;;;;;;;6291274;22;20045;-86
2023/10/27 03:20:38;;;;;;;0.28;0.28;;;;;;;;;;6291954;22;20020;-86
2023/10/27 03:23:04;;;;;;;0.30;0.30;;;;;;;;;;6290872;22;20011;-86
2023/10/27 03:25:30;;;;;;;0.20;0.20;;;;;;;;;;6291181;22;20015;-87
2023/10/27 03:27:56;;;;;;;0.30;0.30;;;;;;;;;;6290197;22;20015;-86
2023/10/27 03:30:24;;;;;;;0.30;0.30;;;;;;;;;;6293786;22;20022;-86
2023/10/27 03:32:55;;;;;;;0.40;0.40;;;;;;;;;;6310828;22;20023;-86
2023/10/27 03:35:58;;;;;;;0.30;0.30;;;;;;;;;;6310923;22;20041;-86
2023/10/27 03:38:35;;;;;;;0.20;0.20;;;;;;;;;;6309136;22;20019;-86
2023/10/27 03:41:04;;;;;;;0.30;0.30;;;;;;;;;;6334745;22;20011;-85
2023/10/27 03:43:43;;;;;;;0.30;0.30;;;;;;;;;;6336290;22;20019;-85
2023/10/27 03:46:27;;;;;;;0.30;0.30;;;;;;;;;;6325967;22;19999;-86
2023/10/27 03:48:55;;;;;;;0.30;0.30;;;;;;;;;;6316526;22;20045;-87
2023/10/27 03:51:22;;;;;;;0.40;0.40;;;;;;;;;;6290708;22;20023;-87
2023/10/27 03:53:48;;;;;;;0.40;0.40;;;;;;;;;;6316140;22;20019;-88
2023/10/27 03:56:14;;;;;;;0.30;0.30;;;;;;;;;;6290434;22;20021;-86
2023/10/27 03:58:40;;;;;;;0.30;0.30;;;;;;;;;;6290716;22;20019;-87
2023/10/27 04:01:06;;;;;;;0.30;0.30;;;;;;;;;;6291656;22;20068;-84
2023/10/27 04:03:32;;;;;;;0.30;0.30;;;;;;;;;;6315856;22;20023;-86
2023/10/27 04:05:59;;;;;;;0.30;0.30;;;;;;;;;;6291241;22;20362;-86
2023/10/27 04:08:25;;;;;;;0.28;0.28;;;;;;;;;;6290462;22;20019;-86
2023/10/27 04:10:51;;;;;;;0.30;0.30;;;;;;;;;;6290911;22;20015;-87
2023/10/27 04:13:17;;;;;;;0.32;0.32;;;;;;;;;;6291250;22;20057;-88
2023/10/27 04:15:44;;;;;;;0.30;0.30;;;;;;;;;;6292248;22;20011;-87
2023/10/27 04:18:10;;;;;;;0.30;0.30;;;;;;;;;;6290558;22;20018;-85
2023/10/27 04:20:38;;;;;;;0.40;0.40;;;;;;;;;;6290959;22;20015;-86
2023/10/27 04:23:04;;;;;;;0.30;0.30;;;;;;;;;;6291222;22;20015;-86
2023/10/27 04:25:30;;;;;;;0.30;0.30;;;;;;;;;;6291862;22;20015;-86
2023/10/27 04:27:56;;;;;;;0.30;0.30;;;;;;;;;;6291477;22;20015;-88
2023/10/27 04:30:23;;;;;;;0.30;0.30;;;;;;;;;;6292155;22;20015;-87
2023/10/27 04:32:49;;;;;;;0.28;0.28;;;;;;;;;;6291230;22;19995;-87
2023/10/27 04:35:17;;;;;;;0.30;0.30;;;;;;;;;;6290642;22;20060;-87
2023/10/27 04:37:43;;;;;;;0.20;0.20;;;;;;;;;;6317529;22;20315;-87
2023/10/27 04:40:10;;;;;;;0.30;0.30;;;;;;;;;;6290726;22;20022;-87
2023/10/27 04:42:36;;;;;;;0.30;0.30;;;;;;;;;;6291598;22;20015;-88
2023/10/27 04:45:02;;;;;;;0.40;0.40;;;;;;;;;;6291035;22;20030;-87
2023/10/27 04:47:28;;;;;;;0.20;0.20;;;;;;;;;;6290916;22;20019;-86
2023/10/27 04:49:54;;;;;;;0.30;0.30;;;;;;;;;;6289927;22;20018;-86
2023/10/27 04:52:20;;;;;;;0.30;0.30;;;;;;;;;;6294271;22;20026;-87
2023/10/27 04:54:46;;;;;;;0.30;0.30;;;;;;;;;;6289512;22;20012;-86
2023/10/27 04:57:12;;;;;;;0.30;0.30;;;;;;;;;;6303537;22;20020;-84
2023/10/27 04:59:48;;;;;;;0.38;0.38;;;;;;;;;;6329368;22;20015;-84
2023/10/27 05:02:32;;;;;;;0.30;0.30;;;;;;;;;;6304036;22;20027;-86
2023/10/27 05:04:58;;;;;;;0.30;0.30;;;;;;;;;;6290129;22;20022;-86
2023/10/27 05:07:27;;;;;;;0.30;0.30;;;;;;;;;;6304121;22;19995;-85
2023/10/27 05:09:54;;;;;;;0.35;0.35;;;;;;;;;;6279663;22;19999;-85
2023/10/27 05:12:20;;;;;;;0.30;0.30;;;;;;;;;;6289609;22;20093;-87
2023/10/27 05:14:46;;;;;;;0.35;0.35;;;;;;;;;;6289496;22;20022;-86
2023/10/27 05:17:13;;;;;;;0.40;0.40;;;;;;;;;;6294534;22;20062;-86
2023/10/27 05:19:40;;;;;;;0.40;0.40;;;;;;;;;;6318360;22;20016;-86
2023/10/27 05:22:06;;;;;;;0.32;0.32;;;;;;;;;;6291219;22;20015;-87
2023/10/27 05:24:34;;;;;;;0.30;0.30;;;;;;;;;;6291821;22;20023;-87
2023/10/27 05:27:00;;;;;;;0.30;0.30;;;;;;;;;;6291756;22;20026;-87
2023/10/27 05:29:26;;;;;;;0.30;0.30;;;;;;;;;;6290983;22;20019;-87
2023/10/27 05:31:52;;;;;;;0.30;0.30;;;;;;;;;;6297023;22;20019;-87
2023/10/27 05:34:18;;;;;;;0.40;0.40;;;;;;;;;;6290467;22;20023;-86
2023/10/27 05:36:45;;;;;;;0.32;0.32;;;;;;;;;;6318164;22;20011;-86
2023/10/27 05:39:33;;;;;;;0.30;0.30;;;;;;;;;;6324356;22;20316;-87
2023/10/27 05:41:59;;;;;;;0.30;0.30;;;;;;;;;;6331022;22;20015;-88
2023/10/27 05:44:28;;;;;;;0.30;0.30;;;;;;;;;;6300870;22;20019;-87
2023/10/27 05:47:22;;;;;;;0.30;0.30;;;;;;;;;;6305716;22;20019;-87
2023/10/27 05:49:58;;;;;;;0.40;0.40;;;;;;;;;;6331784;22;20047;-87
2023/10/27 05:52:24;;;;;;;0.30;0.30;;;;;;;;;;6300146;22;20003;-88
2023/10/27 05:54:53;;;;;;;0.43;0.43;;;;;;;;;;6300025;22;20019;-87
2023/10/27 05:57:20;;;;;;;0.30;0.30;;;;;;;;;;6290601;22;20022;-86
2023/10/27 05:59:46;;;;;;;0.30;0.30;;;;;;;;;;6290148;22;20046;-86
2023/10/27 06:02:12;;;;;;;0.30;0.30;;;;;;;;;;6291427;22;20019;-86
2023/10/27 06:05:11;;;;;;;0.32;0.32;;;;;;;;;;6297377;22;20019;-86
2023/10/27 06:07:37;;;;;;;0.30;0.30;;;;;;;;;;6295073;22;20019;-87
2023/10/27 06:10:07;;;;;;;0.30;0.30;;;;;;;;;;6319134;22;20102;-88
2023/10/27 06:12:41;;;;;;;0.30;0.30;;;;;;;;;;6293583;22;20026;-86
2023/10/27 06:15:08;;;;;;;0.40;0.40;;;;;;;;;;6295471;22;20015;-87
2023/10/27 06:17:55;;;;;;;0.20;0.20;;;;;;;;;;6331960;22;20049;-85
2023/10/27 06:20:29;;;;;;;0.30;0.30;;;;;;;;;;6247686;22;20077;-88
2023/10/27 06:22:57;;;;;;;0.28;0.28;;;;;;;;;;6277692;22;20063;-86
2023/10/27 06:25:26;;;;;;;0.30;0.30;;;;;;;;;;6265829;22;20072;-87
2023/10/27 06:27:55;;;;;;;0.28;0.28;;;;;;;;;;6280456;22;20015;-85
2023/10/27 06:30:23;;;;;;;0.30;0.30;;;;;;;;;;6277733;22;20015;-85
2023/10/27 06:32:58;;;;;;;0.40;0.40;;;;;;;;;;6296695;22;20041;-88
2023/10/27 06:35:25;;;;;;;0.30;0.30;;;;;;;;;;6274075;22;20015;-86
2023/10/27 06:38:06;;;;;;;0.40;0.40;;;;;;;;;;6268246;22;20015;-88
2023/10/27 06:40:34;;;;;;;0.30;0.30;;;;;;;;;;6275780;22;20022;-86
2023/10/27 06:43:01;;;;;;;0.50;0.50;;;;;;;;;;6271941;22;20011;-86
2023/10/27 06:45:31;;;;;;;0.38;0.38;;;;;;;;;;6330611;22;20023;-87
2023/10/27 06:47:57;;;;;;;0.40;0.40;;;;;;;;;;6268635;22;20026;-87
2023/10/27 06:50:29;;;;;;;0.40;0.40;;;;;;;;;;6273648;22;20090;-88
2023/10/27 06:53:01;;;;;;;0.22;0.22;;;;;;;;;;6297892;22;20377;-87
2023/10/27 06:55:27;;;;;;;0.30;0.30;;;;;;;;;;6298908;22;20019;-87
2023/10/27 06:57:53;;;;;;;0.22;0.22;;;;;;;;;;6274043;22;20072;-86
2023/10/27 07:00:25;;;;;;;0.30;0.30;;;;;;;;;;6276618;22;20097;-87
2023/10/27 07:03:01;;;;;;;0.30;0.30;;;;;;;;;;6284942;22;20015;-86
2023/10/27 07:05:33;;;;;;;0.40;0.40;;;;;;;;;;6329728;22;20026;-86
2023/10/27 07:08:05;;;;;;;0.38;0.38;;;;;;;;;;6276441;22;20023;-87
2023/10/27 07:10:43;;;;;;;0.20;0.20;;;;;;;;;;6281765;22;20019;-87
2023/10/27 07:13:09;;;;;;;0.20;0.20;;;;;;;;;;6273302;22;20343;-86
2023/10/27 07:15:36;;;;;;;0.30;0.30;;;;;;;;;;6278153;22;20094;-87
2023/10/27 07:18:03;;;;;;;0.40;0.40;;;;;;;;;;6269847;22;20012;-85
2023/10/27 07:20:39;;;;;;;0.30;0.30;;;;;;;;;;6301984;22;20016;-84
2023/10/27 07:23:05;;;;;;;0.30;0.30;;;;;;;;;;6303399;22;20015;-86
2023/10/27 07:25:36;;;;;;;0.20;0.20;;;;;;;;;;6278508;22;20015;-86
2023/10/27 07:28:18;;;;;;;0.20;0.20;;;;;;;;;;6331714;22;20034;-85
2023/10/27 07:31:04;;;;;;;0.30;0.30;;;;;;;;;;6307599;22;20035;-85
2023/10/27 07:33:33;;;;;;;0.40;0.40;;;;;;;;;;6279836;22;20015;-86
2023/10/27 07:36:02;;;;;;;0.40;0.40;;;;;;;;;;6304131;22;20021;-85
2023/10/27 07:38:32;;;;;;;0.30;0.30;;;;;;;;;;6304341;22;19999;-84
2023/10/27 07:41:08;;;;;;;0.20;0.20;;;;;;;;;;6276636;22;20018;-85
2023/10/27 07:43:37;;;;;;;0.30;0.30;;;;;;;;;;6332830;22;20020;-86
2023/10/27 07:46:06;;;;;;;0.20;0.20;;;;;;;;;;6277484;22;20039;-85
2023/10/27 07:48:35;;;;;;;0.30;0.30;;;;;;;;;;6280450;22;20007;-86
2023/10/27 07:51:05;;;;;;;0.40;0.40;;;;;;;;;;6281553;22;20015;-84
2023/10/27 07:53:44;;;;;;;0.40;0.40;;;;;;;;;;6307169;22;20389;-84
2023/10/27 07:56:19;;;;;;;0.30;0.30;;;;;;;;;;6303347;22;20011;-85
2023/10/27 07:59:11;;;;;;;0.40;0.40;;;;;;;;;;6279719;22;20015;-84
2023/10/27 08:02:06;;;;;;;0.35;0.35;;;;;;;;;;6296001;22;20011;-83
2023/10/27 08:04:40;;;;;;;0.30;0.30;;;;;;;;;;6284171;22;19999;-84
2023/10/27 08:07:19;;;;;;;0.30;0.30;;;;;;;;;;6280263;22;20026;-85
2023/10/27 08:09:51;;;;;;;0.30;0.30;;;;;;;;;;6279895;22;20019;-84
2023/10/27 08:12:24;;;;;;;0.30;0.30;;;;;;;;;;6282595;22;20023;-85
2023/10/27 08:15:04;;;;;;;0.30;0.30;;;;;;;;;;6333471;22;20022;-84
2023/10/27 08:17:31;;;;;;;0.30;0.30;;;;;;;;;;6274921;22;20026;-84
2023/10/27 08:20:08;;;;;;;0.30;0.30;;;;;;;;;;6277195;22;20022;-84
2023/10/27 08:22:37;;;;;;;0.30;0.30;;;;;;;;;;6305669;22;20011;-88
2023/10/27 08:25:09;;;;;;;0.20;0.20;;;;;;;;;;6282656;22;20029;-84
2023/10/27 08:27:59;;;;;;;0.32;0.32;;;;;;;;;;6333875;22;20018;-84
2023/10/27 08:30:36;;;;;;;0.50;0.50;;;;;;;;;;6309311;22;20015;-86
2023/10/27 08:33:08;;;;;;;0.30;0.30;;;;;;;;;;6305533;22;20043;-85
2023/10/27 08:35:42;;;;;;;0.30;0.30;;;;;;;;;;6280121;22;20022;-85
2023/10/27 08:38:21;;;;;;;0.40;0.40;;;;;;;;;;6302880;22;20011;-85
2023/10/27 08:40:51;;;;;;;0.30;0.30;;;;;;;;;;6282982;22;20034;-85
2023/10/27 08:43:25;;;;;;;0.25;0.25;;;;;;;;;;6283260;22;20010;-85
2023/10/27 08:46:15;;;;;;;0.40;0.40;;;;;;;;;;6284259;22;19999;-85
2023/10/27 08:48:44;;;;;;;0.40;0.40;;;;;;;;;;6283810;22;20054;-86
2023/10/27 08:51:20;;;;;;;0.40;0.40;;;;;;;;;;6280241;22;20027;-86
2023/10/27 08:53:49;;;;;;;0.40;0.40;;;;;;;;;;6305489;22;20100;-86
2023/10/27 08:56:22;;;;;;;0.30;0.30;;;;;;;;;;6302233;22;19999;-86
2023/10/27 08:59:18;;;;;;;0.30;0.30;;;;;;;;;;6309640;22;20030;-85
2023/10/27 09:02:38;;;;;;;0.40;0.40;;;;;;;;;;6332220;22;20042;-85
2023/10/27 09:05:09;;;;;;;0.28;0.28;;;;;;;;;;6279404;22;20023;-88
2023/10/27 09:07:49;;;;;;;0.20;0.20;;;;;;;;;;6280086;22;20015;-85
2023/10/27 09:11:04;;;;;;;0.30;0.30;;;;;;;;;;6310337;22;20000;-85
2023/10/27 09:13:33;;;;;;;0.30;0.30;;;;;;;;;;6306985;22;20019;-87
2023/10/27 09:19:04;;;;;;;0.30;0.30;;;;;;;;;;6301789;22;20005;-86
2023/10/27 09:21:30;;;;;;;0.22;0.22;;;;;;;;;;6277560;22;20437;-87
2023/10/27 09:24:09;;;;;;;0.30;0.30;;;;;;;;;;6274456;22;20015;-85
2023/10/27 09:26:46;;;;;;;0.40;0.40;;;;;;;;;;6305595;22;20022;-86
2023/10/27 09:32:29;;;;;;;0.25;0.25;;;;;;;;;;6341113;22;20020;-84
2023/10/27 09:35:19;;;;;;;0.20;0.20;;;;;;;;;;6282968;22;20019;-85
2023/10/27 09:38:00;;;;;;;0.20;0.20;;;;;;;;;;6334426;22;20003;-87
2023/10/27 09:40:26;;;;;;;0.30;0.30;;;;;;;;;;6302795;22;20033;-87
2023/10/27 09:42:53;;;;;;;0.30;0.30;;;;;;;;;;6276780;22;20015;-85
2023/10/27 09:45:30;;;;;;;0.30;0.30;;;;;;;;;;6307189;22;20003;-85
2023/10/27 09:48:04;;;;;;;0.30;0.30;;;;;;;;;;6296840;22;20076;-90
2023/10/27 09:50:35;;;;;;;0.22;0.22;;;;;;;;;;6258720;22;20043;-89
2023/10/27 09:56:02;;;;;;;0.30;0.30;;;;;;;;;;6304687;22;20038;-89
2023/10/27 09:58:55;;;;;;;0.40;0.40;;;;;;;;;;6249633;22;20004;-89
2023/10/27 10:01:44;;;;;;;0.30;0.30;;;;;;;;;;6253104;22;20426;-89
2023/10/27 10:12:24;;;;;;;0.40;0.40;;;;;;;;;;6318232;22;20029;-88
2023/10/27 10:14:54;;;;;;;0.32;0.32;;;;;;;;;;6280962;22;20015;-90
2023/10/27 10:17:43;;;;;;;0.30;0.30;;;;;;;;;;6283430;22;20054;-89
2023/10/27 10:20:13;;;;;;;0.30;0.30;;;;;;;;;;6259584;22;20011;-91
2023/10/27 10:22:52;;;;;;;0.40;0.40;;;;;;;;;;6290757;22;20006;-91
2023/10/27 10:25:35;;;;;;;0.40;0.40;;;;;;;;;;6306898;22;20023;-90
2023/10/27 10:28:07;;;;;;;0.40;0.40;;;;;;;;;;6305927;22;20015;-88
2023/10/27 10:30:42;;;;;;;0.28;0.28;;;;;;;;;;6307332;22;20049;-90
2023/10/27 10:33:24;;;;;;;0.30;0.30;;;;;;;;;;6307670;22;20043;-90
2023/10/27 10:36:18;;;;;;;0.40;0.40;;;;;;;;;;6285827;22;20031;-88
2023/10/27 10:39:10;;;;;;;0.30;0.30;;;;;;;;;;6330560;22;20029;-88
2023/10/27 10:41:59;;;;;;;0.40;0.40;;;;;;;;;;6281708;22;20037;-87
2023/10/27 10:44:38;;;;;;;0.30;0.30;;;;;;;;;;6303870;22;19995;-89
2023/10/27 10:47:26;;;;;;;0.30;0.30;;;;;;;;;;6308765;22;20019;-90
2023/10/27 10:49:53;;;;;;;0.20;0.20;;;;;;;;;;6283328;22;20000;-90
2023/10/27 10:52:21;;;;;;;0.40;0.40;;;;;;;;;;6257746;22;20007;-90
2023/10/27 10:54:51;;;;;;;0.30;0.30;;;;;;;;;;6283911;22;20039;-87
2023/10/27 10:57:27;;;;;;;0.38;0.38;;;;;;;;;;6304537;22;20021;-87
2023/10/27 10:59:55;;;;;;;0.30;0.30;;;;;;;;;;6282199;22;20022;-91
2023/10/27 11:02:22;;;;;;;0.30;0.30;;;;;;;;;;6284732;22;20006;-89
2023/10/27 11:10:17;;;;;;;0.30;0.30;;;;;;;;;;6310679;22;20048;-89
2023/10/27 11:12:58;;;;;;;0.30;0.30;;;;;;;;;;6283620;22;20020;-89
2023/10/27 11:15:50;;;;;;;0.40;0.40;;;;;;;;;;6282157;22;20057;-88
2023/10/27 11:18:19;;;;;;;0.30;0.30;;;;;;;;;;6282536;22;20011;-88
2023/10/27 11:20:52;;;;;;;0.30;0.30;;;;;;;;;;6288552;22;19999;-89
2023/10/27 11:23:19;;;;;;;0.20;0.20;;;;;;;;;;6284378;22;20045;-89
2023/10/27 11:25:46;;;;;;;0.10;0.10;;;;;;;;;;6308378;22;20029;-90
2023/10/27 11:28:18;;;;;;;0.30;0.30;;;;;;;;;;6283055;22;20006;-90
2023/10/27 11:33:31;;;;;;;0.30;0.30;;;;;;;;;;6304734;22;20014;-89
2023/10/27 11:35:58;;;;;;;0.30;0.30;;;;;;;;;;6253701;22;20024;-90
2023/10/27 11:38:31;;;;;;;0.30;0.30;;;;;;;;;;6279340;22;20015;-91
2023/10/27 11:41:09;;;;;;;0.30;0.30;;;;;;;;;;6252541;22;20055;-90
2023/10/27 11:43:35;;;;;;;0.50;0.50;;;;;;;;;;6252772;22;20497;-89
2023/10/27 11:46:20;;;;;;;0.40;0.40;;;;;;;;;;6252916;22;20050;-90
2023/10/27 11:48:53;;;;;;;0.30;0.30;;;;;;;;;;6227929;22;20015;-89
2023/10/27 11:51:27;;;;;;;0.30;0.30;;;;;;;;;;6250425;22;20021;-89
2023/10/27 11:54:00;;;;;;;0.20;0.20;;;;;;;;;;6251372;22;20031;-89
2023/10/27 11:56:35;;;;;;;0.30;0.30;;;;;;;;;;6279948;22;20004;-89
2023/10/27 11:59:11;;;;;;;0.40;0.40;;;;;;;;;;6240408;22;20006;-89
2023/10/27 12:02:10;;;;;;;0.40;0.40;;;;;;;;;;6285554;22;20019;-90
2023/10/27 12:04:40;;;;;;;0.20;0.20;;;;;;;;;;6276120;22;20083;-89
2023/10/27 12:07:17;;;;;;;0.40;0.40;;;;;;;;;;6283482;22;20003;-88
2023/10/27 12:15:14;;;;;;;0.30;0.30;;;;;;;;;;6305235;22;20012;-89
2023/10/27 12:18:00;;;;;;;0.30;0.30;;;;;;;;;;6278314;22;20037;-87
2023/10/27 12:20:27;;;;;;;0.40;0.40;;;;;;;;;;6252275;22;20023;-89
2023/10/27 12:22:55;;;;;;;0.30;0.30;;;;;;;;;;6275903;22;20000;-89
2023/10/27 12:25:26;;;;;;;0.30;0.30;;;;;;;;;;6249863;22;20022;-91
2023/10/27 12:31:16;;;;;;;0.30;0.30;;;;;;;;;;6315525;22;20025;-89
2023/10/27 12:33:45;;;;;;;0.32;0.32;;;;;;;;;;6304612;22;20034;-89
2023/10/27 12:36:12;;;;;;;0.30;0.30;;;;;;;;;;6253527;22;20037;-89
2023/10/27 12:38:41;;;;;;;0.30;0.30;;;;;;;;;;6252233;22;20004;-89
2023/10/27 12:41:13;;;;;;;0.30;0.30;;;;;;;;;;6279469;22;20003;-90
2023/10/27 12:44:20;;;;;;;0.30;0.30;;;;;;;;;;6304615;22;20057;-87
2023/10/27 12:46:59;;;;;;;0.30;0.30;;;;;;;;;;6251149;22;20278;-90
2023/10/27 12:49:43;;;;;;;0.35;0.35;;;;;;;;;;6253004;22;20023;-90
2023/10/27 12:52:09;;;;;;;0.40;0.40;;;;;;;;;;6251949;22;20011;-91
2023/10/27 12:54:38;;;;;;;0.30;0.30;;;;;;;;;;6249690;22;20019;-89
2023/10/27 12:57:15;;;;;;;0.40;0.40;;;;;;;;;;6278451;22;20015;-89
2023/10/27 12:59:56;;;;;;;0.30;0.30;;;;;;;;;;6280367;22;20063;-88
2023/10/27 13:02:23;;;;;;;0.32;0.32;;;;;;;;;;6269751;22;20022;-89
2023/10/27 13:05:04;;;;;;;0.40;0.40;;;;;;;;;;6278823;22;20020;-91
2023/10/27 13:07:33;;;;;;;0.45;0.40;;;;;;;;;;6255663;22;20010;-89
2023/10/27 13:10:07;;;;;;;0.40;0.40;;;;;;;;;;6277225;22;20000;-89
2023/10/27 13:12:37;;;;;;;0.30;0.30;;;;;;;;;;6276084;22;20034;-90
2023/10/27 13:15:12;;;;;;;0.30;0.30;;;;;;;;;;6290064;22;20016;-90
2023/10/27 13:46:51;;;;;;;0.22;0.22;;;;;;;;;;6297095;22;20059;-90
2023/10/27 13:54:29;;;;;;;0.30;0.30;;;;;;;;;;6288265;22;20023;-90
2023/10/27 13:57:17;;;;;;;0.20;0.20;;;;;;;;;;6282810;22;20007;-89
2023/10/27 14:00:09;;;;;;;1.25;1.15;;;;;;;;;;6283298;22;20030;-89
2023/10/27 14:26:01;;;;;;;0.25;0.25;;;;;;;;;;6278302;22;20030;-91
2023/10/27 14:28:30;;;;;;;0.40;0.40;;;;;;;;;;6283785;22;20004;-90
2023/10/27 14:32:01;;;;;;;0.40;0.40;;;;;;;;;;6306849;22;20038;-88
2023/10/27 14:45:11;;;;;;;0.30;0.30;;;;;;;;;;6294779;22;20010;-91
2023/10/27 15:39:27;;;;;;;0.20;0.20;;;;;;;;;;6353307;22;20013;-90
2023/10/27 16:08:05;;;;;;;0.30;0.30;;;;;;;;;;6334549;22;20019;-90
2023/10/27 16:10:38;;;;;;;0.30;0.30;;;;;;;;;;6283302;22;20086;-91
2023/10/27 16:13:23;;;;;;;0.30;0.30;;;;;;;;;;6313256;22;20132;-89
2023/10/27 16:15:55;;;;;;;0.30;0.30;;;;;;;;;;6283111;22;20019;-90
2023/10/27 16:18:23;;;;;;;0.22;0.22;;;;;;;;;;6282685;22;20019;-89
2023/10/27 16:20:56;;;;;;;0.30;0.30;;;;;;;;;;6335567;22;20007;-90
2023/10/27 16:23:26;;;;;;;0.30;0.30;;;;;;;;;;6307199;22;20015;-91
2023/10/27 16:26:05;;;;;;;0.20;0.20;;;;;;;;;;6282743;22;20030;-90
2023/10/27 16:29:03;;;;;;;0.30;0.30;;;;;;;;;;6304312;22;20105;-88
2023/10/27 16:31:34;;;;;;;0.30;0.30;;;;;;;;;;6262063;22;20026;-90
2023/10/27 16:34:06;;;;;;;0.32;0.32;;;;;;;;;;6284239;22;20023;-90
2023/10/27 16:39:10;;;;;;;0.30;0.30;;;;;;;;;;6313053;22;20026;-91
2023/10/27 16:41:40;;;;;;;0.20;0.20;;;;;;;;;;6307517;22;20003;-90
2023/10/27 16:44:09;;;;;;;0.28;0.28;;;;;;;;;;6309363;22;20034;-91
2023/10/27 16:46:38;;;;;;;0.30;0.30;;;;;;;;;;6309146;22;20019;-91
2023/10/27 16:49:04;;;;;;;0.30;0.30;;;;;;;;;;6309617;22;20003;-90
2023/10/27 16:51:31;;;;;;;0.20;0.20;;;;;;;;;;6335015;22;20010;-89
2023/10/27 16:53:59;;;;;;;0.20;0.20;;;;;;;;;;6336320;22;20019;-90
2023/10/27 16:56:32;;;;;;;0.20;0.20;;;;;;;;;;6310488;22;20057;-91
2023/10/27 16:59:11;;;;;;;0.28;0.28;;;;;;;;;;6301558;22;20019;-90
2023/10/27 17:01:58;;;;;;;0.30;0.30;;;;;;;;;;6313134;22;20030;-91
2023/10/27 17:04:52;;;;;;;0.30;0.30;;;;;;;;;;6307904;22;20023;-90
2023/10/27 17:07:18;;;;;;;0.30;0.30;;;;;;;;;;6303010;22;20019;-89
2023/10/27 17:09:50;;;;;;;0.30;0.30;;;;;;;;;;6309019;22;20007;-88
2023/10/27 17:12:26;;;;;;;0.40;0.40;;;;;;;;;;6333141;22;20019;-91
2023/10/27 17:15:06;;;;;;;0.30;0.30;;;;;;;;;;6311198;22;20082;-91
2023/10/27 17:17:38;;;;;;;0.20;0.20;;;;;;;;;;6334764;22;20030;-92
2023/10/27 17:20:12;;;;;;;0.30;0.30;;;;;;;;;;6336530;22;20000;-92
2023/10/27 17:30:33;;;;;;;0.28;0.28;;;;;;;;;;6290638;22;20027;-91
2023/10/27 17:33:26;;;;;;;0.20;0.20;;;;;;;;;;6283517;22;20019;-92
2023/10/27 17:38:31;;;;;;;0.30;0.30;;;;;;;;;;6334924;22;20014;-92
2023/10/27 17:56:36;;;;;;;0.20;0.20;;;;;;;;;;6318919;22;20038;-92
2023/10/27 17:59:21;;;;;;;0.20;0.20;;;;;;;;;;6333151;22;20019;-91
2023/10/27 18:01:51;;;;;;;0.30;0.30;;;;;;;;;;6284002;22;20023;-90
2023/10/27 18:04:18;;;;;;;0.30;0.30;;;;;;;;;;6299358;22;20022;-92
2023/10/27 18:06:48;;;;;;;0.30;0.30;;;;;;;;;;6279519;22;20003;-91
2023/10/27 18:09:14;;;;;;;0.30;0.30;;;;;;;;;;6279579;22;20068;-92
2023/10/27 18:16:52;;;;;;;0.30;0.30;;;;;;;;;;6296388;22;20024;-90
2023/10/27 18:19:18;;;;;;;0.30;0.30;;;;;;;;;;6250359;22;20024;-90
2023/10/27 18:21:48;;;;;;;0.30;0.30;;;;;;;;;;6253225;22;20030;-91
2023/10/27 18:40:00;;;;;;;0.30;0.30;;;;;;;;;;6258744;22;20015;-89
2023/10/27 18:45:08;;;;;;;0.30;0.30;;;;;;;;;;6304789;22;20057;-90
2023/10/27 18:52:45;;;;;;;0.20;0.20;;;;;;;;;;6327841;22;20023;-90
2023/10/27 18:55:30;;;;;;;0.30;0.30;;;;;;;;;;6271642;22;20026;-90
2023/10/27 18:58:01;;;;;;;0.30;0.30;;;;;;;;;;6256769;22;20019;-89
2023/10/27 19:00:41;;;;;;;0.20;0.20;;;;;;;;;;6301491;22;20003;-90
2023/10/27 19:03:08;;;;;;;0.30;0.30;;;;;;;;;;6268911;22;20019;-88
2023/10/27 19:06:06;;;;;;;0.30;0.30;;;;;;;;;;6270924;22;20003;-89
2023/10/27 19:09:20;;;;;;;0.30;0.30;;;;;;;;;;6311757;22;20009;-90
2023/10/27 19:19:33;;;;;;;0.25;0.25;;;;;;;;;;6303390;22;20157;-91
2023/10/27 19:22:48;;;;;;;0.20;0.20;;;;;;;;;;6244025;22;20016;-92